Latest Weather Observations for Devonport Airport

IDT60801

Issued at 11:02 am EST Wednesday 6 May 2015 (issued every 30 minutes, with the page automatically refreshed every 10 minutes)

About weather observations | Map of weather stations | Latest weather observations for TAS | Other Formats
Station Details ID: 091126 Name: DEVONPORT AIRPORT Lat: -41.17 Lon: 146.43 Height: 8.0 m
Data from the previous 72 hours. | See also: Recent months at Devonport Airport
Date/Time
EST
Temp
°C
App
Temp
°C
Dew
Point
Rel
Hum
%
Delta-T
°C
Wind Press
QNH
hPa
Press
MSL
hPa
Rain
since 9 am
mm
Dir
 
Spd
km/h
Gust
km/h
Spd
kts
Gust
kts
06/11:00am 12.8 5.3 9.6 81 1.6 WNW 39 48 21 26 1000.8 1000.8 0.0
06/10:39am 12.5 3.3 10.9 90 0.8 WNW 50 69 27 37 1000.5 1000.5 0.0
06/10:30am 12.5 3.2 10.4 87 1.1 WNW 50 67 27 36 1000.6 1000.6 0.0
06/10:04am 11.1 1.9 9.4 89 0.9 WNW 48 67 26 36 1000.8 1000.8 0.0
06/10:00am 11.3 1.6 8.9 85 1.2 WNW 50 67 27 36 1000.9 1000.9 0.0
06/09:30am 11.7 2.5 9.4 86 1.2 WNW 48 61 26 33 1001.2 1001.2 0.0
06/09:13am 11.3 3.4 9.4 88 1.0 WNW 41 65 22 35 1001.5 1001.5 0.0
06/09:00am 11.3 5.1 9.4 88 1.0 W 32 43 17 23 1001.6 1001.6 -
06/08:30am 11.1 5.6 9.0 87 1.0 WNW 28 39 15 21 1001.7 1001.7 -
06/08:00am 10.2 4.1 8.1 87 1.0 WNW 30 43 16 23 1001.7 1001.7 -
06/07:30am 9.6 3.4 7.9 89 0.8 W 30 37 16 20 1001.7 1001.7 -
06/07:00am 9.8 2.5 7.4 85 1.1 WNW 35 46 19 25 1001.4 1001.4 -
06/06:30am 9.3 3.4 7.3 87 0.9 WNW 28 35 15 19 1001.3 1001.3 -
06/06:00am 9.4 1.7 7.0 85 1.1 W 37 46 20 25 1001.1 1001.1 -
06/05:30am 9.8 1.7 7.2 84 1.2 WNW 39 48 21 26 1000.9 1000.9 -
06/05:00am 9.8 1.8 7.4 85 1.1 W 39 46 21 25 1000.6 1000.6 -
06/04:30am 10.0 0.7 7.6 85 1.1 WNW 46 57 25 31 1000.0 1000.0 -
06/04:00am 9.9 1.5 7.5 85 1.2 WNW 41 48 22 26 999.7 999.7 -
06/03:30am 10.2 0.9 7.6 84 1.2 WNW 46 56 25 30 999.6 999.6 -
06/03:00am 9.8 2.2 7.4 85 1.1 W 37 48 20 26 999.4 999.4 0.0
06/02:30am 10.4 1.8 8.0 85 1.2 WNW 43 54 23 29 999.3 999.3 -
06/02:00am 10.6 0.7 8.2 85 1.2 WNW 50 65 27 35 998.9 998.9 -
06/01:30am 10.8 1.6 8.0 83 1.4 WNW 46 59 25 32 998.3 998.3 -
06/01:00am 11.0 4.0 8.6 85 1.2 WNW 35 48 19 26 998.1 998.1 -
06/12:34am 11.0 1.7 9.1 88 0.9 W 48 67 26 36 997.6 997.6 -
06/12:30am 11.1 1.4 9.2 88 0.9 WNW 50 67 27 36 997.4 997.4 -
06/12:14am 12.0 3.0 8.7 80 1.7 WNW 46 67 25 36 997.3 997.3 -
06/12:00am 11.7 3.1 8.2 79 1.7 W 43 57 23 31 997.0 997.0 -
 
Date/Time
EST
Temp
°C
App
Temp
°C
Dew
Point
Rel
Hum
%
Delta-T
°C
Wind Press
QNH
hPa
Press
MSL
hPa
Rain
since 9 am
mm
Dir
 
Spd
km/h
Gust
km/h
Spd
kts
Gust
kts
05/11:30pm 11.6 4.0 9.2 85 1.2 W 39 56 21 30 996.6 996.6 -
05/11:02pm 12.3 4.5 9.9 85 1.2 WNW 41 59 22 32 995.8 995.8 -
05/11:00pm 12.2 4.9 10.3 88 1.0 WNW 39 56 21 30 996.0 996.0 -
05/10:44pm 12.3 3.2 10.0 86 1.2 WNW 48 67 26 36 995.5 995.5 -
05/10:30pm 12.4 3.8 10.3 87 1.1 WNW 46 57 25 31 995.1 995.1 -
05/10:00pm 12.6 3.7 10.7 88 1.0 WNW 48 59 26 32 994.6 994.6 -
05/09:39pm 12.5 3.9 10.4 87 1.1 WNW 46 65 25 35 994.2 994.2 -
05/09:30pm 12.6 3.4 10.8 89 0.9 WNW 50 61 27 33 994.3 994.3 -
05/09:00pm 13.0 3.1 11.1 88 1.0 WNW 54 67 29 36 993.5 993.5 2.0
05/08:30pm 13.1 3.9 11.0 87 1.1 WNW 50 61 27 33 992.4 992.4 -
05/08:00pm 13.2 3.7 11.3 88 1.0 WNW 52 65 28 35 991.4 991.4 -
05/07:30pm 13.4 3.2 12.0 91 0.8 WNW 57 72 31 39 990.4 990.4 -
05/07:16pm 13.1 3.2 12.3 95 0.4 WNW 56 74 30 40 990.3 990.3 -
05/07:00pm 13.5 2.7 12.4 93 0.6 WNW 61 76 33 41 989.6 989.6 -
05/06:36pm 13.4 3.0 12.6 95 0.4 WNW 59 78 32 42 988.9 988.9 -
05/06:31pm 13.3 2.1 12.4 94 0.5 WNW 63 80 34 43 988.6 988.6 -
05/06:30pm 13.4 2.2 12.5 94 0.5 WNW 63 80 34 43 988.5 988.5 -
05/06:29pm 13.4 2.2 12.5 94 0.5 WNW 63 82 34 44 988.4 988.4 -
05/06:26pm 13.6 2.9 12.8 95 0.4 WNW 61 82 33 44 988.4 988.4 -
05/06:00pm 13.6 -0.1 13.6 100 0.0 NW 78 111 42 60 987.3 987.3 -
05/05:56pm 13.5 0.2 13.5 100 0.0 NW 76 111 41 60 986.6 986.6 -
05/05:31pm 13.0 0.6 13.0 100 0.0 NW 70 93 38 50 987.3 987.3 -
05/05:30pm 12.9 0.5 12.9 100 0.0 NW 70 93 38 50 987.4 987.4 -
05/05:00pm 12.5 -0.6 12.0 97 0.3 NW 72 98 39 53 987.7 987.7 -
05/04:30pm 12.0 -2.4 11.2 95 0.4 NW 78 102 42 55 988.7 988.7 -
05/04:03pm 12.8 -0.5 11.2 90 0.8 NW 72 102 39 55 988.8 988.8 -
05/04:00pm 13.1 -0.4 9.2 77 2.0 NW 70 102 38 55 988.4 988.4 -
05/03:30pm 14.0 2.2 11.7 86 1.2 NW 65 85 35 46 989.1 989.1 -
05/03:03pm 13.7 2.6 11.4 86 1.2 NW 61 83 33 45 989.3 989.3 -
05/03:00pm 13.7 2.6 11.6 87 1.1 NW 61 83 33 45 989.4 989.4 -
05/02:49pm 12.5 2.0 11.1 91 0.7 NW 57 76 31 41 989.3 989.3 -
05/02:47pm 12.5 2.7 11.4 93 0.6 NW 54 72 29 39 989.5 989.5 -
05/02:30pm 11.5 -0.9 9.6 88 1.0 NW 65 85 35 46 989.7 989.7 -
05/02:29pm 11.6 -0.6 10.3 92 0.7 NW 65 85 35 46 989.7 989.7 -
05/02:25pm 12.6 2.0 10.7 88 1.0 WNW 57 85 31 46 989.5 989.5 -
05/02:23pm 12.7 2.3 10.8 88 1.0 WNW 56 85 30 46 989.7 989.7 -
05/02:22pm 12.9 3.0 11.0 88 1.0 WNW 54 85 29 46 989.5 989.5 -
05/02:20pm 13.5 4.5 11.7 89 1.0 WNW 50 72 27 39 989.6 989.6 -
05/02:18pm 13.1 3.1 10.6 85 1.3 WNW 54 78 29 42 989.7 989.7 -
05/02:08pm 12.5 1.0 11.4 93 0.6 NW 63 82 34 44 989.7 989.7 -
05/02:00pm 14.1 3.7 11.3 83 1.5 NW 57 78 31 42 989.4 989.4 -
05/01:30pm 14.3 3.5 11.3 82 1.6 NW 59 78 32 42 989.5 989.5 -
05/01:23pm 14.5 4.0 11.1 80 1.8 NW 57 76 31 41 989.6 989.6 -
05/01:00pm 13.9 2.4 10.3 79 1.9 NW 61 76 33 41 990.0 990.0 -
05/12:39pm 14.4 5.1 10.4 77 2.1 NW 50 72 27 39 990.5 990.5 -
05/09:00am 14.4 5.1 14.1 98 0.2 NNW 56 69 30 37 992.2 992.2 12.4
05/08:33am 15.0 6.0 15.0 100 0.0 NNW 56 72 30 39 992.7 992.7 12.4
05/08:30am 15.1 6.5 15.1 100 0.0 NNW 54 72 29 39 992.7 992.7 12.4
05/08:28am 15.2 6.6 15.0 99 0.1 NNW 54 72 29 39 992.7 992.7 12.4
05/08:04am 15.1 7.6 15.1 100 0.0 NNW 48 61 26 33 993.2 993.2 12.4
05/08:00am 15.0 7.5 15.0 100 0.0 NNW 48 63 26 34 993.2 993.2 12.4
05/07:47am 15.1 6.9 15.1 100 0.0 N 52 70 28 38 993.4 993.4 12.0
05/07:30am 15.1 8.0 14.9 99 0.1 N 46 61 25 33 993.6 993.6 11.4
05/07:19am 15.0 7.5 15.0 100 0.0 N 48 61 26 33 994.1 994.1 11.2
05/07:17am 15.1 7.6 15.1 100 0.0 N 48 61 26 33 994.2 994.2 11.2
05/07:12am 14.9 7.4 14.9 100 0.0 N 48 61 26 33 994.2 994.2 11.2
05/07:00am 15.0 7.1 15.0 100 0.0 N 50 74 27 40 994.8 994.8 11.0
05/06:54am 14.9 5.9 14.9 100 0.0 N 56 74 30 40 994.6 994.6 10.8
05/06:45am 14.6 5.4 14.6 100 0.0 N 56 69 30 37 994.5 994.5 10.6
05/06:38am 14.6 5.8 14.6 100 0.0 N 54 69 29 37 994.5 994.5 10.4
05/06:30am 15.0 7.1 15.0 100 0.0 N 50 67 27 36 994.8 994.8 10.2
05/06:24am 15.0 7.5 15.0 100 0.0 N 48 63 26 34 995.0 995.0 10.2
05/06:00am 15.0 7.1 15.0 100 0.0 N 50 67 27 36 996.0 996.0 9.6
05/05:30am 15.1 6.7 14.6 97 0.3 N 52 69 28 37 996.5 996.5 8.6
05/05:25am 15.1 7.5 14.6 97 0.3 N 48 67 26 36 996.7 996.7 8.6
05/05:14am 15.1 7.5 14.8 98 0.2 N 48 61 26 33 996.8 996.8 8.0
05/05:00am 15.1 8.3 14.8 98 0.2 N 44 59 24 32 997.0 997.0 7.2
05/04:52am 14.9 8.5 14.3 96 0.3 N 41 59 22 32 997.3 997.3 7.0
05/04:30am 15.4 10.7 14.8 96 0.3 N 33 41 18 22 997.8 997.8 5.8
05/04:00am 15.2 11.0 14.6 96 0.3 NNE 30 37 16 20 997.5 997.5 5.6
05/03:30am 15.1 10.5 15.1 100 0.0 N 33 43 18 23 999.1 999.1 5.4
05/03:00am 15.3 12.1 15.3 100 0.0 NNE 26 35 14 19 1000.6 1000.6 4.4
05/02:30am 15.5 12.0 15.5 100 0.0 NNE 28 33 15 18 1001.6 1001.6 2.8
05/02:00am 15.7 12.6 15.7 100 0.0 NNE 26 32 14 17 1002.7 1002.7 1.6
05/01:30am 15.7 13.4 15.7 100 0.0 NNE 22 28 12 15 1003.4 1003.4 0.8
05/01:02am 15.9 12.9 15.9 100 0.0 NNE 26 32 14 17 1003.9 1003.9 0.4
05/01:00am 15.9 12.9 15.9 100 0.0 NNE 26 32 14 17 1003.9 1003.9 0.4
05/12:30am 16.0 13.1 16.0 100 0.0 NNE 26 32 14 17 1004.5 1004.5 0.4
05/12:00am 15.9 13.3 15.9 100 0.0 NNE 24 32 13 17 1005.2 1005.2 0.4
 
Date/Time
EST
Temp
°C
App
Temp
°C
Dew
Point
Rel
Hum
%
Delta-T
°C
Wind Press
QNH
hPa
Press
MSL
hPa
Rain
since 9 am
mm
Dir
 
Spd
km/h
Gust
km/h
Spd
kts
Gust
kts
04/11:30pm 15.6 12.9 15.6 100 0.0 NE 24 32 13 17 1004.1 1004.1 0.4
04/11:16pm 15.6 12.9 15.6 100 0.0 NE 24 32 13 17 1004.5 1004.5 0.4
04/11:00pm 15.4 12.2 15.4 100 0.0 NE 26 32 14 17 1004.7 1004.7 0.4
04/10:47pm 15.4 11.9 15.4 100 0.0 NE 28 32 15 17 1005.3 1005.3 0.4
04/10:30pm 15.5 13.1 15.3 99 0.1 NE 22 28 12 15 1006.0 1006.0 0.2
04/10:18pm 15.6 13.2 15.3 98 0.2 NNE 22 30 12 16 1006.5 1006.5 0.0
04/10:00pm 15.4 13.3 15.1 98 0.2 NE 20 28 11 15 1006.4 1006.4 0.0
04/09:30pm 15.2 12.6 15.0 99 0.1 NE 22 32 12 17 1006.8 1006.8 0.0
04/09:00pm 15.4 13.0 14.3 93 0.6 NE 20 24 11 13 1007.2 1007.2 0.0
04/08:30pm 15.3 13.8 14.2 93 0.6 NNE 15 20 8 11 1007.9 1007.9 0.0
04/08:00pm 15.2 13.9 14.9 98 0.2 NNE 15 20 8 11 1008.5 1008.5 0.0
04/07:30pm 14.2 13.4 13.9 98 0.2 ENE 11 19 6 10 1008.8 1008.8 0.0
04/07:00pm 14.2 13.6 13.6 96 0.3 E 9 13 5 7 1008.7 1008.7 0.0
04/06:30pm 14.9 13.3 13.9 94 0.6 NE 15 20 8 11 1009.2 1009.2 0.0
04/06:00pm 14.7 13.3 13.4 92 0.7 NNE 13 17 7 9 1009.4 1009.4 0.0
04/05:30pm 14.6 13.1 13.0 90 0.9 NNE 13 17 7 9 1009.4 1009.4 0.0
04/05:00pm 15.0 12.7 13.0 88 1.1 N 17 20 9 11 1009.8 1009.8 0.0
04/04:30pm 15.1 12.5 13.1 88 1.1 N 19 22 10 12 1010.1 1010.1 0.0
04/04:00pm 16.0 13.7 12.9 82 1.7 N 17 20 9 11 1009.9 1009.9 0.0
04/03:30pm 16.2 14.0 13.3 83 1.6 N 17 20 9 11 1010.3 1010.3 0.0
04/03:00pm 16.3 13.9 12.8 80 1.9 N 17 20 9 11 1010.7 1010.7 0.0
04/02:30pm 15.9 15.0 13.6 86 1.3 N 11 15 6 8 1011.1 1011.1 0.0
04/02:00pm 15.7 14.0 13.5 87 1.2 N 15 19 8 10 1011.8 1011.8 0.0
04/01:30pm 15.3 13.9 13.3 88 1.1 NNE 13 19 7 10 1012.0 1012.0 0.0
04/01:00pm 15.9 15.0 13.7 87 1.2 NE 11 15 6 8 1012.5 1012.6 0.0
04/12:30pm 14.9 14.5 12.9 88 1.1 NNE 7 11 4 6 1013.0 1013.1 0.0
04/12:00pm 15.1 14.6 12.8 86 1.3 NE 7 9 4 5 1013.5 1013.6 0.0
04/11:30am 14.4 13.3 12.1 86 1.2 NNE 9 13 5 7 1014.0 1014.1 0.0
04/11:00am 14.6 14.1 12.5 87 1.1 N 7 9 4 5 1014.3 1014.4 0.0
04/10:30am 14.9 15.3 12.6 86 1.3 NE 2 6 1 3 1014.5 1014.6 0.0
04/10:00am 14.1 14.9 12.7 91 0.8 CALM 0 0 0 0 1014.9 1015.0 0.0
04/09:30am 13.2 13.0 13.0 99 0.1 E 6 9 3 5 1015.2 1015.3 0.0
04/09:00am 12.6 11.7 12.6 100 0.0 SSE 9 9 5 5 1015.3 1015.4 0.2
04/08:30am 11.8 10.7 11.8 100 0.0 SSE 9 11 5 6 1015.4 1015.5 0.2
04/08:00am 11.2 9.5 11.2 100 0.0 S 11 13 6 7 1015.5 1015.6 0.2
04/07:30am 10.7 9.2 10.7 100 0.0 SSE 9 13 5 7 1015.6 1015.7 0.2
04/07:00am 9.9 8.6 9.9 100 0.0 SSW 7 9 4 5 1015.9 1016.0 0.2
04/06:30am 10.3 8.7 10.3 100 0.0 SSE 9 11 5 6 1015.4 1015.5 0.2
04/06:00am 10.9 9.5 10.9 100 0.0 S 9 13 5 7 1015.5 1015.6 0.2
04/05:30am 11.1 9.8 11.1 100 0.0 SSW 9 11 5 6 1015.7 1015.8 0.2
04/05:00am 11.1 9.8 11.1 100 0.0 S 9 11 5 6 1015.6 1015.7 0.2
04/04:30am 11.0 9.6 11.0 100 0.0 S 9 13 5 7 1015.7 1015.8 0.2
04/04:00am 11.2 9.1 11.2 100 0.0 SSE 13 15 7 8 1015.9 1016.0 0.2
04/03:54am 11.2 9.5 11.2 100 0.0 S 11 13 6 7 1016.0 1016.1 0.2
04/03:30am 11.3 10.0 11.3 100 0.0 SSW 9 13 5 7 1016.1 1016.2 0.2
04/03:18am 11.0 9.2 11.0 100 0.0 SSW 11 13 6 7 1016.3 1016.4 0.2
04/03:13am 10.9 9.1 10.9 100 0.0 SSW 11 13 6 7 1016.3 1016.4 0.2
04/03:00am 11.0 8.9 11.0 100 0.0 SSE 13 15 7 8 1016.2 1016.3 0.2
04/02:30am 10.7 8.9 10.7 100 0.0 S 11 13 6 7 1016.5 1016.6 0.2
04/02:21am 10.5 8.2 10.5 100 0.0 S 13 15 7 8 1016.8 1016.9 0.2
04/02:07am 10.4 7.7 10.4 100 0.0 SSE 15 19 8 10 1016.9 1017.0 0.2
04/02:00am 10.8 8.2 10.8 100 0.0 SSE 15 19 8 10 1016.8 1016.9 0.2
04/01:39am 11.0 9.2 11.0 100 0.0 S 11 15 6 8 1017.3 1017.4 0.2
04/01:30am 10.8 8.6 10.8 100 0.0 S 13 17 7 9 1017.4 1017.5 0.2
04/01:20am 10.7 8.9 10.7 100 0.0 S 11 15 6 8 1017.3 1017.4 0.2
04/01:02am 10.4 8.9 10.4 100 0.0 S 9 13 5 7 1017.4 1017.5 0.2
04/01:00am 10.4 8.5 10.4 100 0.0 S 11 13 6 7 1017.4 1017.5 0.2
04/12:59am 10.4 8.5 10.4 100 0.0 S 11 13 6 7 1017.5 1017.6 0.2
04/12:30am 9.7 7.2 9.7 100 0.0 S 13 15 7 8 1017.6 1017.7 0.2
04/12:26am 9.6 7.1 9.6 100 0.0 S 13 15 7 8 1017.7 1017.8 0.2
04/12:22am 9.5 6.9 9.5 100 0.0 S 13 17 7 9 1017.6 1017.7 0.2
04/12:03am 10.0 7.2 10.0 100 0.0 S 15 20 8 11 1017.5 1017.6 0.2
04/12:00am 10.0 7.2 10.0 100 0.0 S 15 20 8 11 1017.6 1017.7 0.2
 
Date/Time
EST
Temp
°C
App
Temp
°C
Dew
Point
Rel
Hum
%
Delta-T
°C
Wind Press
QNH
hPa
Press
MSL
hPa
Rain
since 9 am
mm
Dir
 
Spd
km/h
Gust
km/h
Spd
kts
Gust
kts
03/11:32pm 9.1 5.7 9.1 100 0.0 S 17 20 9 11 1017.7 1017.8 0.2
03/11:30pm 9.1 5.7 9.1 100 0.0 S 17 19 9 10 1017.7 1017.8 0.2
03/11:26pm 9.1 6.1 9.1 100 0.0 S 15 19 8 10 1017.8 1017.9 0.2
03/11:25pm 9.2 5.8 9.2 100 0.0 S 17 19 9 10 1017.8 1017.9 0.2
03/11:11pm 8.9 5.8 8.9 100 0.0 SSE 15 17 8 9 1018.0 1018.0 0.2
03/11:00pm 9.5 6.6 9.5 100 0.0 SSE 15 17 8 9 1018.1 1018.1 0.2
03/10:44pm 9.3 6.7 9.3 100 0.0 SSE 13 15 7 8 1018.1 1018.1 0.2
03/10:30pm 9.2 6.6 9.2 100 0.0 SSE 13 15 7 8 1018.3 1018.3 0.2
03/10:24pm 9.1 6.4 9.1 100 0.0 S 13 15 7 8 1018.3 1018.3 0.2
03/10:20pm 9.0 6.3 9.0 100 0.0 S 13 15 7 8 1018.2 1018.2 0.2
03/10:12pm 9.3 7.1 9.3 100 0.0 S 11 15 6 8 1018.2 1018.2 0.2
03/10:00pm 9.3 7.5 9.3 100 0.0 SSW 9 13 5 7 1018.0 1018.0 0.2
03/09:51pm 8.3 6.6 8.3 100 0.0 SSW 7 9 4 5 1018.0 1018.0 0.2
03/09:30pm 9.2 7.3 9.2 100 0.0 SE 9 11 5 6 1017.7 1017.8 0.2
03/09:00pm 8.9 6.9 8.6 98 0.1 ESE 9 11 5 6 1018.1 1018.1 0.2
03/08:30pm 11.6 10.7 11.4 99 0.1 SW 7 9 4 5 1018.0 1018.0 0.2
03/08:00pm 11.9 11.1 11.7 99 0.1 SW 7 9 4 5 1017.8 1017.9 0.2
03/07:30pm 11.8 11.4 11.2 96 0.3 SE 4 7 2 4 1017.7 1017.8 0.2
03/07:03pm 13.0 11.9 12.1 94 0.5 WSW 9 13 5 7 1017.7 1017.8 0.2
03/07:00pm 13.2 12.2 12.3 94 0.5 WSW 9 15 5 8 1017.7 1017.8 0.2
03/06:30pm 14.3 12.0 13.0 92 0.7 WNW 17 20 9 11 1017.7 1017.8 0.2
03/06:00pm 14.4 12.5 13.1 92 0.7 WNW 15 19 8 10 1017.7 1017.8 0.2
03/05:30pm 14.5 12.2 12.9 90 0.9 NW 17 22 9 12 1017.3 1017.4 0.2
03/05:01pm 14.8 11.9 13.0 89 1.0 NW 20 24 11 13 1017.2 1017.3 0.2
03/05:00pm 14.8 11.9 13.0 89 1.0 WNW 20 24 11 13 1017.2 1017.3 0.2
03/04:30pm 14.8 11.8 12.7 87 1.2 NW 20 26 11 14 1017.3 1017.4 0.2
03/04:00pm 15.4 12.4 12.7 84 1.5 NW 20 28 11 15 1017.1 1017.2 0.2
03/03:30pm 15.8 12.5 12.7 82 1.7 NW 22 26 12 14 1016.9 1017.0 0.2
03/03:00pm 16.4 13.2 13.1 81 1.8 NW 22 28 12 15 1017.0 1017.1 0.2
03/02:30pm 15.6 12.2 12.5 82 1.7 NW 22 28 12 15 1017.0 1017.1 0.2
03/02:00pm 15.7 11.8 12.1 79 2.0 NW 24 30 13 16 1017.1 1017.2 0.2
03/01:30pm 16.1 12.8 12.7 80 1.9 NW 22 30 12 16 1017.3 1017.4 0.2
03/01:00pm 15.5 11.8 12.6 83 1.6 NW 24 28 13 15 1017.4 1017.5 0.2
03/12:30pm 15.9 12.8 12.1 78 2.1 NW 20 24 11 13 1017.6 1017.7 0.2
03/12:00pm 16.0 12.9 12.2 78 2.1 WNW 20 24 11 13 1018.0 1018.0 0.0
03/11:30am 15.4 12.2 11.4 77 2.1 NW 19 24 10 13 1018.0 1018.0 0.0

Other Formats:

Comma delimited format used in spreadsheet applications
http://www.bom.gov.au/fwo/IDT60801/IDT60801.95960.axf

JavaScript Object Notation format (JSON) in row-major order
http://www.bom.gov.au/fwo/IDT60801/IDT60801.95960.json